createdAt,value
2018-04-13T00:01:35.412Z,15.97
2018-04-13T00:04:04.726Z,22.43
2018-04-13T00:06:34.070Z,19.70
2018-04-13T00:09:03.390Z,17.87
2018-04-13T00:11:32.694Z,17.83
2018-04-13T00:14:02.059Z,19.60
2018-04-13T00:16:32.127Z,16.00
2018-04-13T00:19:01.442Z,13.97
2018-04-13T00:21:30.769Z,14.37
2018-04-13T00:24:00.898Z,15.93
2018-04-13T00:26:30.962Z,18.30
2018-04-13T00:29:01.036Z,14.47
2018-04-13T00:31:30.420Z,13.17
2018-04-13T00:33:59.718Z,18.13
2018-04-13T00:36:29.039Z,16.63
2018-04-13T00:38:59.124Z,17.03
2018-04-13T00:41:28.462Z,20.03
2018-04-13T00:43:57.767Z,18.83
2018-04-13T00:46:27.840Z,17.70
2018-04-13T00:48:57.181Z,16.87
2018-04-13T00:51:26.487Z,16.13
2018-04-13T00:53:55.820Z,17.67
2018-04-13T00:56:25.126Z,17.10
2018-04-13T00:58:54.471Z,19.27
2018-04-13T01:01:23.810Z,15.63
2018-04-13T01:03:53.885Z,16.10
2018-04-13T01:06:24.227Z,17.30
2018-04-13T01:08:53.532Z,18.20
2018-04-13T01:11:22.838Z,18.70
2018-04-13T01:13:52.185Z,19.27
2018-04-13T01:16:21.487Z,22.70
2018-04-13T01:18:50.790Z,21.40
2018-04-13T01:21:20.133Z,22.30
2018-04-13T01:23:49.433Z,19.30
2018-04-13T01:26:18.771Z,18.83
2018-04-13T01:28:48.846Z,22.37
2018-04-13T01:31:18.153Z,19.53
2018-04-13T01:33:47.492Z,19.13
2018-04-13T01:36:16.817Z,19.97
2018-04-13T01:38:46.900Z,20.20
2018-04-13T01:41:16.223Z,19.33
2018-04-13T01:43:46.312Z,22.87
2018-04-13T01:46:15.648Z,24.10
2018-04-13T01:48:45.727Z,23.70
2018-04-13T01:51:15.058Z,26.40
2018-04-13T01:53:45.174Z,24.67
2018-04-13T01:56:14.515Z,27.47
2018-04-13T01:58:43.818Z,31.37
2018-04-13T02:01:13.131Z,28.60
2018-04-13T02:03:42.446Z,25.90
2018-04-13T02:06:12.528Z,26.87
2018-04-13T02:08:42.622Z,29.63
2018-04-13T02:11:11.947Z,28.77
2018-04-13T02:13:42.039Z,32.43
2018-04-13T02:16:11.393Z,27.60
2018-04-13T02:18:40.699Z,33.53
2018-04-13T02:21:10.011Z,37.00
2018-04-13T02:23:39.339Z,40.13
2018-04-13T02:26:08.650Z,35.47
2018-04-13T02:28:37.946Z,25.50
2018-04-13T02:31:07.297Z,27.60
2018-04-13T02:33:36.608Z,29.67
2018-04-13T02:36:05.912Z,31.43
2018-04-13T02:38:35.242Z,33.37
2018-04-13T02:41:04.557Z,26.00
2018-04-13T02:43:33.887Z,30.10
2018-04-13T02:46:03.316Z,29.83
2018-04-13T02:48:33.422Z,25.93
2018-04-13T02:51:03.529Z,29.53
2018-04-13T02:53:32.834Z,30.80
2018-04-13T02:56:02.163Z,30.23
2018-04-13T02:58:32.265Z,30.93
2018-04-13T03:01:02.340Z,34.00
2018-04-13T03:03:31.675Z,32.57
2018-04-13T03:06:01.009Z,36.13
2018-04-13T03:08:30.330Z,31.63
2018-04-13T03:10:59.678Z,39.70
2018-04-13T03:13:29.039Z,32.63
2018-04-13T03:15:58.362Z,32.03
2018-04-13T03:18:27.679Z,34.70
2018-04-13T03:20:56.978Z,29.20
2018-04-13T03:23:26.323Z,32.23
2018-04-13T03:25:56.398Z,32.33
2018-04-13T03:31:01.191Z,35.97
2018-04-13T03:33:32.244Z,34.70
2018-04-13T03:36:01.563Z,38.73
2018-04-13T03:38:30.870Z,35.00
2018-04-13T03:41:00.213Z,39.50
2018-04-13T03:43:29.551Z,33.03
2018-04-13T03:45:58.885Z,38.63
2018-04-13T03:48:28.218Z,38.97
2018-04-13T03:50:57.547Z,31.63
2018-04-13T03:53:27.632Z,33.17
2018-04-13T03:55:56.957Z,28.27
2018-04-13T03:58:27.869Z,36.30
2018-04-13T04:00:57.218Z,26.80
2018-04-13T04:03:27.295Z,26.40
2018-04-13T04:05:56.644Z,34.67
2018-04-13T04:08:26.714Z,28.37
2018-04-13T04:10:56.051Z,29.10
2018-04-13T04:13:25.362Z,34.03
2018-04-13T04:15:55.456Z,29.40
2018-04-13T04:18:24.797Z,28.27
2018-04-13T04:21:11.852Z,24.57
2018-04-13T04:24:00.634Z,32.20
2018-04-13T04:26:50.182Z,29.43
2018-04-13T04:29:19.527Z,31.03
2018-04-13T04:31:48.839Z,32.67
2018-04-13T04:34:18.938Z,35.27
2018-04-13T04:36:48.273Z,33.00
2018-04-13T04:39:18.384Z,30.10
2018-04-13T04:41:47.705Z,27.97
2018-04-13T04:44:17.027Z,28.70
2018-04-13T04:46:46.372Z,24.83
2018-04-13T04:49:15.677Z,25.93
2018-04-13T04:51:45.039Z,27.23
2018-04-13T04:54:14.375Z,17.73
2018-04-13T04:56:43.713Z,25.77
2018-04-13T04:59:13.807Z,23.40
2018-04-13T05:01:43.790Z,25.27
2018-04-13T05:04:13.108Z,17.70
2018-04-13T05:06:42.410Z,24.83
2018-04-13T05:09:11.740Z,27.37
2018-04-13T05:11:41.085Z,27.33
2018-04-13T05:14:10.388Z,29.20
2018-04-13T05:16:39.734Z,29.40
2018-04-13T05:19:09.057Z,28.87
2018-04-13T05:21:38.386Z,27.33
2018-04-13T05:24:07.721Z,30.27
2018-04-13T05:26:37.025Z,27.43
2018-04-13T05:29:06.326Z,30.60
2018-04-13T05:31:35.663Z,26.80
2018-04-13T05:34:05.096Z,25.73
2018-04-13T05:36:34.402Z,25.77
2018-04-13T05:39:03.760Z,26.33
2018-04-13T05:41:33.099Z,27.43
2018-04-13T05:44:03.196Z,23.90
2018-04-13T05:46:32.526Z,32.30
2018-04-13T05:49:01.835Z,29.37
2018-04-13T05:51:31.151Z,24.70
2018-04-13T05:54:00.500Z,27.10
2018-04-13T05:56:29.820Z,24.93
2018-04-13T05:58:59.935Z,29.03
2018-04-13T06:01:29.250Z,29.03
2018-04-13T06:03:59.374Z,29.10
2018-04-13T06:06:29.456Z,22.87
2018-04-13T06:08:58.817Z,26.57
2018-04-13T06:11:28.147Z,25.63
2018-04-13T06:13:57.463Z,27.10
2018-04-13T06:16:26.811Z,25.27
2018-04-13T06:18:56.891Z,28.73
2018-04-13T06:21:26.215Z,26.17
2018-04-13T06:23:56.298Z,28.37
2018-04-13T06:26:25.603Z,27.20
2018-04-13T06:28:54.946Z,31.93
2018-04-13T06:31:25.035Z,25.07
2018-04-13T06:33:54.369Z,24.10
2018-04-13T06:36:23.700Z,28.17
2018-04-13T06:38:53.017Z,27.53
2018-04-13T06:41:22.356Z,27.00
2018-04-13T06:43:51.844Z,29.93
2018-04-13T06:46:21.154Z,28.50
2018-04-13T06:48:50.547Z,27.33
2018-04-13T06:51:19.847Z,36.90
2018-04-13T06:53:49.142Z,37.87
2018-04-13T06:56:18.475Z,36.10
2018-04-13T06:58:47.803Z,34.40
2018-04-13T07:01:18.014Z,38.70
2018-04-13T07:03:47.297Z,40.23
2018-04-13T07:06:16.652Z,39.87
2018-04-13T07:08:45.995Z,41.63
2018-04-13T07:11:15.311Z,39.17
2018-04-13T07:13:45.154Z,41.10
2018-04-13T07:16:14.457Z,38.63
2018-04-13T07:18:45.345Z,39.77
2018-04-13T07:21:14.694Z,40.43
2018-04-13T07:23:45.282Z,41.73
2018-04-13T07:26:14.612Z,42.67
2018-04-13T07:28:43.951Z,39.27
2018-04-13T07:31:13.297Z,40.67
2018-04-13T07:33:42.631Z,41.63
2018-04-13T07:36:11.969Z,42.40
2018-04-13T07:38:41.266Z,40.10
2018-04-13T07:41:10.594Z,38.67
2018-04-13T07:43:39.945Z,40.40
2018-04-13T07:46:10.044Z,36.83
2018-04-13T07:48:39.349Z,38.60
2018-04-13T07:51:09.306Z,33.10
2018-04-13T07:53:38.050Z,36.40
2018-04-13T07:56:07.411Z,33.40
2018-04-13T07:58:36.752Z,32.97
2018-04-13T08:01:06.133Z,31.63
2018-04-13T08:03:35.452Z,30.27
2018-04-13T08:06:04.788Z,27.70
2018-04-13T08:08:34.124Z,30.60
2018-04-13T08:11:03.460Z,29.00
2018-04-13T08:13:32.797Z,29.53
2018-04-13T08:16:02.910Z,29.03
2018-04-13T08:18:32.214Z,27.67
2018-04-13T08:21:01.547Z,29.30
2018-04-13T08:23:30.857Z,25.57
2018-04-13T08:26:00.178Z,27.27
2018-04-13T08:28:29.502Z,26.77
2018-04-13T08:30:58.830Z,27.33
2018-04-13T08:33:28.147Z,26.80
2018-04-13T08:35:58.235Z,27.53
2018-04-13T08:38:27.570Z,26.30
2018-04-13T08:40:57.674Z,23.23
2018-04-13T08:43:27.053Z,26.27
2018-04-13T08:45:56.341Z,21.23
2018-04-13T08:48:25.674Z,23.17
2018-04-13T08:50:55.035Z,23.93
2018-04-13T08:53:24.387Z,23.63
2018-04-13T08:55:53.675Z,25.27
2018-04-13T08:58:23.009Z,24.33
2018-04-13T09:00:53.096Z,23.57
2018-04-13T09:03:22.435Z,23.60
2018-04-13T09:05:52.506Z,23.83
2018-04-13T09:08:21.828Z,23.03
2018-04-13T09:10:51.174Z,24.87
2018-04-13T09:13:21.279Z,23.03
2018-04-13T09:15:51.380Z,20.27
2018-04-13T09:18:20.699Z,21.57
2018-04-13T09:20:50.901Z,20.20
2018-04-13T09:23:20.178Z,20.13
2018-04-13T09:25:50.227Z,19.30
2018-04-13T09:28:19.545Z,19.80
2018-04-13T09:30:48.907Z,18.87
2018-04-13T09:33:18.224Z,16.43
2018-04-13T09:35:48.211Z,17.60
2018-04-13T09:38:17.540Z,16.63
2018-04-13T09:40:46.958Z,17.33
2018-04-13T09:43:16.286Z,16.20
2018-04-13T09:45:46.369Z,17.57
2018-04-13T09:48:15.703Z,17.47
2018-04-13T09:50:45.804Z,16.87
2018-04-13T09:53:15.149Z,18.17
2018-04-13T09:55:44.461Z,19.73
2018-04-13T09:58:13.760Z,18.47
2018-04-13T10:00:43.113Z,20.83
2018-04-13T10:03:17.945Z,21.53
2018-04-13T10:05:47.301Z,22.97
2018-04-13T10:08:16.624Z,22.43
2018-04-13T10:10:45.935Z,22.70
2018-04-13T10:13:16.611Z,23.07
2018-04-13T10:15:46.722Z,21.93
2018-04-13T10:18:16.040Z,22.23
2018-04-13T10:20:46.141Z,23.43
2018-04-13T10:23:15.480Z,22.33
2018-04-13T10:25:44.798Z,21.60
2018-04-13T10:28:14.108Z,21.03
2018-04-13T10:30:43.453Z,21.97
2018-04-13T10:33:13.541Z,22.97
2018-04-13T10:35:42.891Z,24.13
2018-04-13T10:38:12.978Z,23.40
2018-04-13T10:40:42.290Z,24.80
2018-04-13T10:43:11.618Z,24.67
2018-04-13T10:45:41.711Z,24.93
2018-04-13T10:48:11.043Z,21.90
2018-04-13T10:50:41.118Z,21.90
2018-04-13T10:53:10.479Z,23.37
2018-04-13T10:55:40.579Z,23.17
2018-04-13T10:58:10.649Z,27.93
2018-04-13T11:00:39.966Z,27.97
2018-04-13T11:03:09.326Z,26.07
2018-04-13T11:05:38.651Z,26.33
2018-04-13T11:08:08.721Z,26.13
2018-04-13T11:10:38.039Z,20.57
2018-04-13T11:13:08.150Z,19.40
2018-04-13T11:15:38.250Z,18.57
2018-04-13T11:18:07.623Z,16.50
2018-04-13T11:20:36.970Z,17.87
2018-04-13T11:23:06.283Z,16.80
2018-04-13T11:25:36.398Z,16.30
2018-04-13T11:28:05.742Z,17.53
2018-04-13T11:30:35.044Z,16.17
2018-04-13T11:33:04.381Z,15.90
2018-04-13T11:35:33.693Z,17.80
2018-04-13T11:38:03.035Z,18.87
2018-04-13T11:40:32.349Z,16.77
2018-04-13T11:43:01.676Z,17.33
2018-04-13T11:45:31.028Z,16.43
2018-04-13T11:48:01.109Z,14.13
2018-04-13T11:50:30.457Z,12.87
2018-04-13T11:53:00.595Z,11.13
2018-04-13T11:55:29.888Z,13.77
2018-04-13T11:58:00.042Z,13.47
2018-04-13T12:00:29.532Z,13.83
2018-04-13T12:02:59.733Z,13.77
2018-04-13T12:08:05.504Z,12.37
2018-04-13T12:10:35.673Z,12.13
2018-04-13T12:13:05.078Z,13.10
2018-04-13T12:15:34.499Z,13.90
2018-04-13T12:18:03.943Z,15.13
2018-04-13T12:20:34.133Z,14.33
2018-04-13T12:23:03.617Z,13.97
2018-04-13T12:25:33.008Z,15.47
2018-04-13T12:28:02.495Z,12.97
2018-04-13T12:30:31.878Z,12.47
2018-04-13T12:33:03.657Z,11.97
2018-04-13T12:35:34.114Z,12.07
2018-04-13T12:38:04.756Z,13.23
2018-04-13T12:40:35.814Z,12.00
2018-04-13T12:43:05.144Z,13.87
2018-04-13T12:45:35.237Z,12.47
2018-04-13T12:48:04.571Z,13.33
2018-04-13T12:50:34.661Z,14.10
2018-04-13T12:53:04.048Z,13.87
2018-04-13T12:55:34.152Z,13.73
2018-04-13T12:58:03.450Z,14.57
2018-04-13T13:00:32.777Z,15.10
2018-04-13T13:03:02.128Z,15.77
2018-04-13T13:05:32.204Z,14.50
2018-04-13T13:08:01.561Z,14.07
2018-04-13T13:10:31.638Z,14.60
2018-04-13T13:13:01.020Z,13.93
2018-04-13T13:15:30.372Z,14.50
2018-04-13T13:18:00.467Z,15.07
2018-04-13T13:20:29.779Z,15.23
2018-04-13T13:22:59.121Z,14.97
2018-04-13T13:25:28.451Z,13.80
2018-04-13T13:27:57.773Z,13.67
2018-04-13T13:30:27.118Z,11.93
2018-04-13T13:32:57.195Z,12.77
2018-04-13T13:35:26.556Z,12.23
2018-04-13T13:37:55.859Z,10.80
2018-04-13T13:40:25.167Z,11.07
2018-04-13T13:42:54.540Z,10.73
2018-04-13T13:45:23.843Z,10.60
2018-04-13T13:47:53.933Z,10.47
2018-04-13T13:50:23.273Z,10.53
2018-04-13T13:52:53.343Z,11.03
2018-04-13T13:55:22.764Z,9.60
2018-04-13T13:57:52.119Z,9.27
2018-04-13T14:00:21.975Z,9.93
2018-04-13T14:02:51.283Z,9.13
2018-04-13T14:05:20.617Z,10.47
2018-04-13T14:07:50.705Z,11.47
2018-04-13T14:10:20.025Z,10.93
2018-04-13T14:12:49.379Z,10.43
2018-04-13T14:15:18.684Z,10.60
2018-04-13T14:17:48.015Z,10.57
2018-04-13T14:20:17.315Z,11.40
2018-04-13T14:22:46.660Z,10.67
2018-04-13T14:25:16.750Z,9.37
2018-04-13T14:27:46.083Z,10.13
2018-04-13T14:30:16.189Z,11.97
2018-04-13T14:32:45.511Z,11.20
2018-04-13T14:35:14.831Z,11.00
2018-04-13T14:37:44.163Z,11.73
2018-04-13T14:40:13.520Z,11.60
2018-04-13T14:42:45.069Z,11.63
2018-04-13T14:45:15.154Z,10.90
2018-04-13T14:47:44.489Z,11.60
2018-04-13T14:50:14.611Z,11.80
2018-04-13T14:52:44.702Z,11.50
2018-04-13T14:55:14.034Z,12.70
2018-04-13T14:57:44.132Z,13.10
2018-04-13T15:00:13.460Z,13.03
2018-04-13T15:02:43.553Z,12.73
2018-04-13T15:05:12.878Z,12.87
2018-04-13T15:07:42.227Z,12.70
2018-04-13T15:10:11.627Z,13.07
2018-04-13T15:12:41.700Z,14.23
2018-04-13T15:15:11.028Z,13.67
2018-04-13T15:17:40.342Z,15.70
2018-04-13T15:20:10.753Z,15.10
2018-04-13T15:22:40.833Z,15.20
2018-04-13T15:25:10.156Z,14.07
2018-04-13T15:27:39.571Z,13.57
2018-04-13T15:30:09.708Z,14.30
2018-04-13T15:32:39.161Z,11.93
2018-04-13T15:35:08.512Z,12.67
2018-04-13T15:37:37.894Z,15.37
2018-04-13T15:40:07.995Z,15.03
2018-04-13T15:42:38.221Z,14.67
2018-04-13T15:45:07.592Z,15.00
2018-04-13T15:47:37.019Z,13.60
2018-04-13T15:50:06.351Z,14.40
2018-04-13T15:52:36.543Z,15.57
2018-04-13T15:55:05.882Z,15.17
2018-04-13T15:57:35.970Z,14.97
2018-04-13T16:00:05.423Z,15.43
2018-04-13T16:02:35.505Z,14.80
2018-04-13T16:05:04.848Z,14.47
2018-04-13T16:07:34.207Z,14.17
2018-04-13T16:10:03.531Z,13.87
2018-04-13T16:12:33.636Z,14.67
2018-04-13T16:15:03.041Z,15.27
2018-04-13T16:17:32.358Z,15.70
2018-04-13T16:20:02.455Z,17.00
2018-04-13T16:22:31.754Z,16.73
2018-04-13T16:25:01.090Z,15.87
2018-04-13T16:27:31.210Z,16.33
2018-04-13T16:30:01.342Z,15.67
2018-04-13T16:32:31.420Z,17.87
2018-04-13T16:35:00.758Z,16.53
2018-04-13T16:37:30.886Z,18.03
2018-04-13T16:40:01.022Z,17.97
2018-04-13T16:42:30.379Z,17.67
2018-04-13T16:44:59.752Z,17.43
2018-04-13T16:47:29.062Z,17.70
2018-04-13T16:49:58.405Z,16.47
2018-04-13T16:52:27.718Z,17.37
2018-04-13T16:54:57.815Z,16.10
2018-04-13T16:57:27.149Z,16.43
2018-04-13T16:59:56.459Z,16.27
2018-04-13T17:02:25.782Z,17.07
2018-04-13T17:04:55.164Z,17.43
2018-04-13T17:07:24.490Z,17.83
2018-04-13T17:09:53.802Z,16.40
2018-04-13T17:12:23.114Z,17.03
2018-04-13T17:14:52.451Z,15.83
2018-04-13T17:17:22.569Z,15.90
2018-04-13T17:19:51.920Z,16.07
2018-04-13T17:22:21.221Z,16.33
2018-04-13T17:24:50.535Z,16.27
2018-04-13T17:27:19.891Z,17.10
2018-04-13T17:29:49.975Z,17.63
2018-04-13T17:32:19.318Z,19.63
2018-04-13T17:34:49.429Z,17.30
2018-04-13T17:37:19.544Z,16.97
2018-04-13T17:39:48.899Z,16.13
2018-04-13T17:42:18.227Z,17.73
2018-04-13T17:44:47.566Z,17.10
2018-04-13T17:47:17.750Z,14.03
2018-04-13T17:49:50.437Z,15.97
2018-04-13T17:52:20.432Z,16.53
2018-04-13T17:54:49.780Z,16.00
2018-04-13T17:57:19.928Z,14.90
2018-04-13T17:59:49.247Z,16.67
2018-04-13T18:02:18.595Z,15.93
2018-04-13T18:04:47.948Z,16.17
2018-04-13T18:07:17.301Z,15.27
2018-04-13T18:09:46.669Z,15.73
2018-04-13T18:12:15.984Z,16.03
2018-04-13T18:14:45.376Z,16.83
2018-04-13T18:17:14.729Z,15.93
2018-04-13T18:19:44.858Z,17.10
2018-04-13T18:22:14.208Z,15.87
2018-04-13T18:24:43.564Z,14.70
2018-04-13T18:27:14.105Z,16.30
2018-04-13T18:29:43.486Z,15.47
2018-04-13T18:32:13.575Z,17.53
2018-04-13T18:34:42.943Z,15.57
2018-04-13T18:37:12.291Z,15.63
2018-04-13T18:39:41.627Z,15.17
2018-04-13T18:42:15.851Z,16.20
2018-04-13T18:44:49.935Z,15.40
2018-04-13T18:47:22.655Z,17.20
2018-04-13T18:49:52.008Z,16.50
2018-04-13T18:52:21.331Z,15.73
2018-04-13T18:54:50.675Z,16.50
2018-04-13T18:57:20.068Z,17.00
2018-04-13T18:59:49.384Z,15.10
2018-04-13T19:02:19.101Z,17.80
2018-04-13T19:04:48.430Z,16.53
2018-04-13T19:07:17.790Z,17.63
2018-04-13T19:09:47.920Z,18.67
2018-04-13T19:12:17.246Z,18.00
2018-04-13T19:14:46.599Z,18.80
2018-04-13T19:17:15.966Z,24.73
2018-04-13T19:19:45.279Z,17.13
2018-04-13T19:22:14.613Z,16.00
2018-04-13T19:24:44.725Z,17.60
2018-04-13T19:27:14.808Z,16.73
2018-04-13T19:29:44.155Z,18.60
2018-04-13T19:32:14.295Z,17.23
2018-04-13T19:34:44.396Z,17.80
2018-04-13T19:37:14.543Z,16.00
2018-04-13T19:39:43.873Z,16.57
2018-04-13T19:42:13.216Z,13.07
2018-04-13T19:44:42.567Z,16.97
2018-04-13T19:47:11.892Z,17.77
2018-04-13T19:49:41.250Z,16.70
2018-04-13T19:52:11.785Z,17.20
2018-04-13T19:54:41.094Z,16.20
2018-04-13T19:57:10.421Z,16.33
2018-04-13T19:59:39.784Z,16.20
2018-04-13T20:02:09.311Z,16.87
2018-04-13T20:04:38.628Z,18.20
2018-04-13T20:07:08.005Z,18.70
2018-04-13T20:09:37.311Z,20.17
2018-04-13T20:12:06.932Z,20.53
2018-04-13T20:14:36.273Z,20.23
2018-04-13T20:17:05.614Z,20.50
2018-04-13T20:19:35.715Z,19.57
2018-04-13T20:22:05.095Z,19.37
2018-04-13T20:24:34.416Z,19.97
2018-04-13T20:27:03.755Z,21.53
2018-04-13T20:29:33.088Z,19.33
2018-04-13T20:32:02.422Z,19.90
2018-04-13T20:34:31.742Z,18.57
2018-04-13T20:37:01.867Z,20.40
2018-04-13T20:39:31.960Z,21.07
2018-04-13T20:42:01.315Z,20.47
2018-04-13T20:44:30.657Z,22.07
2018-04-13T20:47:00.757Z,22.23
2018-04-13T20:49:30.115Z,24.80
2018-04-13T20:52:00.247Z,24.70
2018-04-13T20:54:30.375Z,24.90
2018-04-13T20:56:59.678Z,26.37
2018-04-13T20:59:29.013Z,24.77
2018-04-13T21:01:58.350Z,30.13
2018-04-13T21:04:27.687Z,28.33
2018-04-13T21:06:57.020Z,31.20
2018-04-13T21:09:27.053Z,29.07
2018-04-13T21:11:56.376Z,26.57
2018-04-13T21:14:25.695Z,27.27
2018-04-13T21:16:55.817Z,25.40
2018-04-13T21:19:25.361Z,26.53
2018-04-13T21:21:54.675Z,22.27
2018-04-13T21:24:24.035Z,22.67
2018-04-13T21:26:54.154Z,27.87
2018-04-13T21:29:24.246Z,27.40
2018-04-13T21:31:53.613Z,26.57
2018-04-13T21:34:23.562Z,31.20
2018-04-13T21:36:52.989Z,24.67
2018-04-13T21:39:23.061Z,33.17
2018-04-13T21:41:52.409Z,31.33
2018-04-13T21:44:21.735Z,29.83
2018-04-13T21:46:51.046Z,30.93
2018-04-13T21:49:20.447Z,31.93
2018-04-13T21:51:49.754Z,34.53
2018-04-13T21:54:19.087Z,34.63
2018-04-13T21:56:48.410Z,35.60
2018-04-13T21:59:17.736Z,34.43
2018-04-13T22:01:47.842Z,34.17
2018-04-13T22:04:17.162Z,31.03
2018-04-13T22:06:47.252Z,31.33
2018-04-13T22:09:16.578Z,32.30
2018-04-13T22:11:46.665Z,32.33
2018-04-13T22:14:33.827Z,32.90
2018-04-13T22:17:03.904Z,30.03
2018-04-13T22:19:33.235Z,33.80
2018-04-13T22:22:02.641Z,34.17
2018-04-13T22:24:31.955Z,35.50
2018-04-13T22:27:02.246Z,36.03
2018-04-13T22:29:31.554Z,33.80
2018-04-13T22:32:00.862Z,37.10
2018-04-13T22:34:30.210Z,33.13
2018-04-13T22:36:59.518Z,34.97
2018-04-13T22:39:28.848Z,30.30
2018-04-13T22:41:58.178Z,32.93
2018-04-13T22:44:27.502Z,33.30
2018-04-13T22:46:57.569Z,32.73
2018-04-13T22:49:28.107Z,32.53
2018-04-13T22:51:57.419Z,35.03
2018-04-13T22:54:26.777Z,33.73
2018-04-13T22:56:56.083Z,31.23
2018-04-13T22:59:25.426Z,31.70
2018-04-13T23:01:54.776Z,32.90
2018-04-13T23:04:24.843Z,28.70
2018-04-13T23:06:54.178Z,28.77
2018-04-13T23:09:24.267Z,30.33
2018-04-13T23:11:53.587Z,27.77
2018-04-13T23:14:23.599Z,33.53
2018-04-13T23:16:52.956Z,31.13
2018-04-13T23:19:22.262Z,28.03
2018-04-13T23:21:52.431Z,28.03
2018-04-13T23:24:21.765Z,31.17
2018-04-13T23:26:51.840Z,30.37
2018-04-13T23:29:21.198Z,29.23
2018-04-13T23:31:50.511Z,27.97
2018-04-13T23:34:21.090Z,27.43
2018-04-13T23:36:50.423Z,30.87
2018-04-13T23:39:20.516Z,27.27
2018-04-13T23:41:49.901Z,34.33
2018-04-13T23:44:19.238Z,26.30
2018-04-13T23:46:48.581Z,27.83
2018-04-13T23:49:17.952Z,27.50
2018-04-13T23:51:47.268Z,29.80
2018-04-13T23:54:17.349Z,28.90
2018-04-13T23:56:46.703Z,29.43
2018-04-13T23:59:16.035Z,27.73
